Time;durP1;ratioP1;P1;durP2;ratioP2;P2;SDS_P1;SDS_P2;PMS_P1;PMS_P2;Temp;Humidity;BMP_temperature;BMP_pressure;BME280_temperature;BME280_humidity;BME280_pressure;Samples;Min_cycle;Max_cycle;Signal;HPM_P1;HPM_P2
2022/02/11 00:07:56;;;;;;;1.95;1.80;;;;;;;3.20;84.66;100876.13;8898591;32;20181;-75
2022/02/11 00:13:01;;;;;;;2.22;0.90;;;;;;;3.21;84.61;100876.97;8896944;32;21622;-75
2022/02/11 00:18:04;;;;;;;1.02;1.02;;;;;;;3.16;84.69;100873.69;8896089;32;20207;-74
2022/02/11 00:23:08;;;;;;;0.90;0.90;;;;;;;3.20;84.62;100868.16;8897072;32;20258;-74
2022/02/11 00:33:50;;;;;;;0.95;0.95;;;;;;;3.07;84.29;100858.97;8783464;32;20896;-75
2022/02/11 00:39:08;;;;;;;0.50;0.50;;;;;;;2.99;84.06;100856.66;8683999;33;20241;-75
2022/02/11 01:05:39;;;;;;;1.67;1.30;;;;;;;2.66;83.20;100858.94;8683062;33;22032;-75
2022/02/11 01:10:43;;;;;;;1.38;1.38;;;;;;;2.68;82.71;100849.09;8683289;33;20180;-75
2022/02/11 01:15:54;;;;;;;0.65;0.65;;;;;;;2.57;83.21;100853.97;8683867;33;20932;-75
2022/02/11 01:21:03;;;;;;;1.08;1.08;;;;;;;2.57;83.21;100846.00;8682363;33;20696;-75
2022/02/11 01:26:19;;;;;;;1.30;1.30;;;;;;;2.40;83.02;100846.66;8681915;33;20211;-75
2022/02/11 01:31:36;;;;;;;0.60;0.60;;;;;;;2.38;82.71;100846.72;8680581;33;20428;-75
2022/02/11 01:36:54;;;;;;;1.60;1.40;;;;;;;2.17;83.49;100847.56;8682637;33;20196;-75
2022/02/11 01:53:02;;;;;;;1.67;1.67;;;;;;;2.03;86.38;100857.81;8725877;32;20789;-74
2022/02/11 02:04:05;;;;;;;1.40;1.38;;;;;;;2.44;85.37;100847.41;8634539;33;21405;-73
2022/02/11 02:15:03;;;;;;;2.05;1.95;;;;;;;2.01;85.38;100833.19;8637257;33;20229;-75
2022/02/11 02:25:52;;;;;;;0.47;0.47;;;;;;;1.99;84.09;100798.78;8681587;33;20995;-75
2022/02/11 02:36:55;;;;;;;1.20;1.20;;;;;;;2.06;84.02;100805.59;8511847;33;20650;-75
2022/02/11 02:58:13;;;;;;;1.00;1.00;;;;;;;1.91;84.92;100799.06;8648084;33;20189;-74
2022/02/11 03:14:53;;;;;;;4.65;1.50;;;;;;;1.35;86.32;100801.22;8666691;33;20240;-74
2022/02/11 03:57:46;;;;;;;1.65;1.58;;;;;;;1.49;85.92;100773.28;8604311;33;21492;-74
2022/02/11 04:56:36;;;;;;;2.05;2.03;;;;;;;1.35;85.49;100758.84;8607995;33;21520;-76
2022/02/11 05:01:41;;;;;;;1.05;1.05;;;;;;;1.18;87.16;100786.78;8605541;33;20262;-75
2022/02/11 05:06:45;;;;;;;0.77;0.77;;;;;;;1.34;87.11;100744.72;8605043;33;21578;-76
2022/02/11 05:11:48;;;;;;;1.05;1.05;;;;;;;1.35;86.93;100743.84;8610825;33;20489;-75
2022/02/11 05:16:51;;;;;;;1.92;1.83;;;;;;;1.22;87.17;100740.75;8613887;33;20449;-76
2022/02/11 05:21:55;;;;;;;0.90;0.90;;;;;;;1.15;87.56;100741.91;8607052;33;20555;-75
2022/02/11 05:26:58;;;;;;;0.70;0.70;;;;;;;1.08;87.74;100737.75;8602618;33;21539;-75
2022/02/11 05:32:01;;;;;;;1.63;1.63;;;;;;;1.06;88.30;100752.81;8603445;33;20681;-75
2022/02/11 05:37:06;;;;;;;3.30;2.15;;;;;;;1.33;88.07;100728.91;8603381;33;20146;-75
2022/02/11 05:42:09;;;;;;;0.95;0.95;;;;;;;1.11;89.07;100740.28;8602738;33;20654;-74
2022/02/11 05:47:12;;;;;;;2.13;2.03;;;;;;;1.01;89.14;100737.09;8603407;33;20247;-75
2022/02/11 05:52:17;;;;;;;1.30;1.30;;;;;;;1.08;89.11;100736.91;8602272;33;20222;-75
2022/02/11 05:57:20;;;;;;;2.20;2.08;;;;;;;1.30;88.25;100729.03;8601623;33;20564;-75
2022/02/11 06:02:23;;;;;;;0.98;0.98;;;;;;;1.06;90.04;100740.44;8602243;33;20473;-75
2022/02/11 06:07:28;;;;;;;1.58;1.52;;;;;;;1.07;89.68;100754.56;8602155;33;20188;-76
2022/02/11 06:12:31;;;;;;;0.90;0.90;;;;;;;0.88;90.52;100764.03;8601051;33;20180;-76
2022/02/11 06:17:34;;;;;;;1.20;1.10;;;;;;;1.12;90.11;100746.44;8601473;33;20776;-76
2022/02/11 06:22:39;;;;;;;1.80;1.70;;;;;;;1.25;89.54;100753.88;8600969;33;20188;-75
2022/02/11 06:27:42;;;;;;;0.80;0.80;;;;;;;1.43;89.05;100754.16;8601039;33;20240;-76
2022/02/11 06:32:45;;;;;;;1.88;1.88;;;;;;;1.32;89.73;100769.53;8600634;33;20173;-76
2022/02/11 06:37:50;;;;;;;0.65;0.65;;;;;;;1.12;89.97;100775.53;8600874;33;20745;-76
2022/02/11 06:42:53;;;;;;;0.95;0.95;;;;;;;1.25;89.91;100777.69;8599753;33;20193;-76
2022/02/11 06:47:56;;;;;;;0.50;0.50;;;;;;;1.12;91.14;100783.47;8600450;33;20266;-75
2022/02/11 06:53:00;;;;;;;0.77;0.77;;;;;;;1.31;90.11;100773.09;8599774;33;20603;-76
2022/02/11 06:58:03;;;;;;;0.70;0.70;;;;;;;1.13;90.27;100798.47;8599090;33;20749;-77
2022/02/11 07:03:06;;;;;;;0.80;0.80;;;;;;;1.39;89.35;100793.06;8599909;33;20185;-76
2022/02/11 07:08:13;;;;;;;0.80;0.80;;;;;;;1.34;89.87;100804.75;8600882;33;20227;-76
2022/02/11 07:13:16;;;;;;;1.67;1.58;;;;;;;1.60;89.94;100809.97;8604713;33;20193;-76
2022/02/11 07:18:19;;;;;;;1.08;1.05;;;;;;;1.53;89.78;100807.59;8604513;33;20243;-75
2022/02/11 07:23:24;;;;;;;1.52;1.42;;;;;;;1.53;90.23;100813.75;8603093;33;20255;-76
2022/02/11 07:28:27;;;;;;;2.25;1.65;;;;;;;1.54;90.64;100810.22;8604655;33;20238;-76
2022/02/11 07:33:30;;;;;;;0.60;0.60;;;;;;;1.46;90.38;100812.28;8604046;33;20259;-75
2022/02/11 07:38:34;;;;;;;8.50;4.20;;;;;;;1.88;89.14;100816.88;8604465;33;20335;-75
2022/02/11 07:43:37;;;;;;;5.35;2.88;;;;;;;1.62;88.67;100839.91;8603965;33;20635;-75
2022/02/11 07:48:44;;;;;;;4.03;2.45;;;;;;;1.79;88.40;100854.31;8603085;33;20134;-75
2022/02/11 07:53:49;;;;;;;6.82;2.60;;;;;;;1.72;87.48;100873.06;8621270;33;20207;-75
2022/02/11 07:58:52;;;;;;;6.03;2.33;;;;;;;1.71;86.40;100871.34;8610987;33;20189;-76
2022/02/11 08:03:56;;;;;;;4.47;2.72;;;;;;;1.81;85.68;100886.91;8611658;33;20173;-75
2022/02/11 08:09:00;;;;;;;5.45;2.40;;;;;;;2.02;85.76;100885.25;8603916;33;20255;-75
2022/02/11 08:14:03;;;;;;;6.60;2.28;;;;;;;1.91;85.86;100904.19;8603302;33;20254;-75
2022/02/11 08:19:07;;;;;;;8.88;2.75;;;;;;;2.15;86.38;100897.97;8602603;33;20210;-75
2022/02/11 08:24:11;;;;;;;8.75;2.65;;;;;;;1.81;88.19;100900.16;8602765;33;20211;-75
2022/02/11 08:29:15;;;;;;;5.80;2.63;;;;;;;1.60;88.86;100923.84;8603147;33;20653;-76
2022/02/11 08:34:18;;;;;;;8.13;2.10;;;;;;;1.62;90.10;100929.06;8602924;33;20201;-75
2022/02/11 08:39:23;;;;;;;6.60;2.15;;;;;;;1.77;89.26;100932.97;8602563;33;20146;-76
2022/02/11 08:44:26;;;;;;;8.27;2.58;;;;;;;1.89;88.34;100929.88;8602886;33;20185;-76
2022/02/11 08:49:31;;;;;;;5.53;2.58;;;;;;;1.94;89.22;100965.88;8556692;33;20190;-76
2022/02/11 08:54:38;;;;;;;6.28;2.80;;;;;;;1.73;89.26;100967.53;8556866;33;20197;-76
2022/02/11 08:59:41;;;;;;;9.60;3.22;;;;;;;1.56;90.10;100969.00;8581575;33;20204;-76
2022/02/11 09:04:44;;;;;;;6.72;2.25;;;;;;;1.53;89.88;100980.56;8596646;33;20193;-75
2022/02/11 09:09:51;;;;;;;6.10;2.53;;;;;;;1.45;90.81;100999.41;8581838;33;20212;-77
2022/02/11 09:14:54;;;;;;;7.88;2.70;;;;;;;1.81;89.82;101006.13;8571553;33;20189;-75
2022/02/11 09:19:57;;;;;;;4.03;1.98;;;;;;;1.70;90.46;101028.56;8573555;33;20255;-77
2022/02/11 09:25:02;;;;;;;8.75;2.10;;;;;;;1.83;89.88;101030.78;8554269;33;20224;-76
2022/02/11 09:30:06;;;;;;;4.47;1.90;;;;;;;1.64;89.90;101041.13;8567089;33;20620;-75
2022/02/11 09:35:11;;;;;;;3.95;2.35;;;;;;;1.83;89.74;101063.44;8572246;33;21782;-76
2022/02/11 09:40:17;;;;;;;3.75;1.55;;;;;;;2.14;88.49;101070.34;8584670;33;20655;-75
2022/02/11 09:45:22;;;;;;;3.38;1.95;;;;;;;1.67;88.69;101071.06;8570829;33;20197;-77
2022/02/11 09:50:25;;;;;;;7.40;2.08;;;;;;;1.97;88.57;101084.16;8575485;33;20142;-75
2022/02/11 09:55:40;;;;;;;7.50;2.67;;;;;;;2.12;87.97;101085.44;8566650;33;20243;-75
2022/02/11 10:00:48;;;;;;;8.38;2.47;;;;;;;2.10;87.29;101092.56;8565565;33;20192;-75
2022/02/11 10:05:51;;;;;;;4.40;1.88;;;;;;;2.48;86.12;101122.19;8574829;33;20164;-75
2022/02/11 10:10:57;;;;;;;7.30;2.92;;;;;;;2.26;85.57;101135.31;8576321;33;20244;-75
2022/02/11 10:16:08;;;;;;;5.32;2.67;;;;;;;2.61;84.28;101168.59;8585260;33;20915;-74
2022/02/11 10:21:20;;;;;;;3.50;1.75;;;;;;;2.56;84.30;101149.34;8601949;33;20499;-75
2022/02/11 10:26:27;;;;;;;2.95;2.13;;;;;;;2.58;83.78;101179.31;8601644;33;20769;-76
2022/02/11 10:31:35;;;;;;;2.05;1.77;;;;;;;2.27;84.45;101193.59;8572997;33;20220;-76
2022/02/11 10:36:40;;;;;;;3.38;2.08;;;;;;;2.45;83.77;101210.66;8566724;33;21017;-76
2022/02/11 10:41:58;;;;;;;2.13;1.67;;;;;;;3.01;83.24;101191.03;8566791;33;20446;-76
2022/02/11 10:47:04;;;;;;;5.03;1.90;;;;;;;2.79;84.22;101214.81;8577347;33;21364;-75
2022/02/11 10:52:17;;;;;;;6.45;2.90;;;;;;;2.79;85.49;101222.78;8585078;33;20641;-74
2022/02/11 10:57:25;;;;;;;5.47;2.10;;;;;;;2.44;85.52;101229.28;8663619;33;20548;-75
2022/02/11 11:02:29;;;;;;;2.88;1.98;;;;;;;2.58;85.41;101259.78;8662645;33;20222;-75
2022/02/11 11:07:33;;;;;;;4.95;2.10;;;;;;;2.71;84.60;101280.56;8663373;33;20261;-75
2022/02/11 11:12:58;;;;;;;1.70;1.58;;;;;;;3.14;84.58;101271.09;8663592;33;20938;-76
2022/02/11 11:18:07;;;;;;;2.95;1.70;;;;;;;2.61;83.12;101287.97;8662899;33;21146;-75
2022/02/11 11:23:20;;;;;;;6.00;2.63;;;;;;;3.00;83.68;101304.31;8662716;33;20185;-75
2022/02/11 11:28:42;;;;;;;2.25;1.83;;;;;;;2.98;83.32;101311.47;8662378;33;20161;-74
2022/02/11 11:33:46;;;;;;;3.75;1.67;;;;;;;3.05;81.79;101317.44;8663792;33;20357;-76
2022/02/11 11:38:58;;;;;;;4.78;1.67;;;;;;;3.09;83.23;101334.13;8668001;33;20456;-75
2022/02/11 11:44:19;;;;;;;4.90;1.48;;;;;;;2.46;83.32;101344.16;8673850;33;20279;-75
2022/02/11 11:49:26;;;;;;;6.47;1.95;;;;;;;3.32;83.54;101358.09;8654154;33;20185;-74
2022/02/11 11:54:29;;;;;;;2.42;1.60;;;;;;;3.06;83.20;101367.81;8632384;33;20279;-76
2022/02/11 11:59:38;;;;;;;6.00;1.75;;;;;;;2.98;81.32;101347.75;8652937;33;20176;-77
2022/02/11 12:04:52;;;;;;;7.03;1.70;;;;;;;3.61;81.78;101393.38;8662544;33;20188;-76
2022/02/11 12:09:58;;;;;;;4.10;1.95;;;;;;;3.94;80.89;101396.59;8667638;33;21825;-76
2022/02/11 12:15:06;;;;;;;3.85;1.20;;;;;;;3.26;80.81;101411.41;8663826;33;20184;-77
2022/02/11 12:20:10;;;;;;;4.22;1.60;;;;;;;3.45;80.25;101416.94;8662154;33;20200;-75
2022/02/11 12:30:42;;;;;;;4.22;1.77;;;;;;;3.14;79.46;101480.88;8628590;33;20192;-76
2022/02/11 12:35:50;;;;;;;2.25;1.40;;;;;;;3.38;80.03;101464.13;8624992;33;20181;-76
2022/02/11 12:40:55;;;;;;;5.10;1.63;;;;;;;3.20;79.26;101486.84;8644249;33;20180;-76
2022/02/11 12:46:02;;;;;;;2.33;1.30;;;;;;;3.20;80.02;101496.59;8661139;33;20141;-76
2022/02/11 12:51:10;;;;;;;3.22;1.50;;;;;;;3.37;79.12;101522.59;8659315;33;20211;-76
2022/02/11 12:56:14;;;;;;;5.32;1.60;;;;;;;3.00;78.69;101524.66;8661465;33;20172;-76
2022/02/11 13:01:31;;;;;;;9.18;2.45;;;;;;;3.46;78.77;101551.53;8660317;33;20688;-76
2022/02/11 13:06:34;;;;;;;3.83;1.90;;;;;;;3.00;78.73;101558.31;8660255;33;20194;-76
2022/02/11 13:11:43;;;;;;;3.35;2.22;;;;;;;3.09;78.77;101565.97;8660440;33;20188;-75
2022/02/11 13:16:47;;;;;;;6.65;2.00;;;;;;;3.28;77.48;101575.09;8659915;33;20179;-76
2022/02/11 13:21:50;;;;;;;5.78;2.42;;;;;;;3.34;77.47;101607.69;8659365;33;20189;-76
2022/02/11 13:26:53;;;;;;;4.30;2.22;;;;;;;3.20;78.29;101624.91;8659547;33;20206;-75
2022/02/11 13:31:59;;;;;;;6.80;3.20;;;;;;;3.53;79.29;101642.53;8659212;33;20141;-76
2022/02/11 13:37:06;;;;;;;5.60;3.53;;;;;;;3.64;80.09;101651.88;8659435;33;20176;-75
2022/02/11 13:42:14;;;;;;;8.85;2.85;;;;;;;3.71;79.51;101656.09;8658975;33;20175;-75
2022/02/11 13:47:23;;;;;;;7.53;3.35;;;;;;;3.31;78.83;101661.78;8658524;33;20195;-76
2022/02/11 13:57:49;;;;;;;6.13;2.90;;;;;;;3.23;82.28;101696.53;8659951;33;21619;-75
2022/02/11 14:02:53;;;;;;;8.43;2.63;;;;;;;3.33;82.18;101705.13;8658628;33;20151;-77
2022/02/11 14:07:57;;;;;;;6.68;2.47;;;;;;;3.37;82.74;101708.53;8660793;33;20423;-77
2022/02/11 14:13:07;;;;;;;7.22;2.33;;;;;;;3.79;83.30;101716.13;8660678;33;20218;-77
2022/02/11 14:18:12;;;;;;;4.07;1.83;;;;;;;3.76;79.66;101730.38;8659984;33;20256;-77
2022/02/11 14:23:18;;;;;;;7.95;2.45;;;;;;;3.83;78.38;101729.25;8659729;33;20699;-76
2022/02/11 14:28:24;;;;;;;8.32;2.85;;;;;;;5.66;77.20;101754.84;8658911;33;20650;-76
2022/02/11 14:33:28;;;;;;;8.50;2.65;;;;;;;6.23;72.22;101747.25;8659358;33;20238;-76
2022/02/11 14:38:32;;;;;;;8.48;2.17;;;;;;;5.65;73.28;101774.41;8659038;33;20291;-77
2022/02/11 14:43:36;;;;;;;4.60;1.90;;;;;;;4.84;74.01;101778.25;8660354;33;20185;-76
2022/02/11 14:48:41;;;;;;;9.45;2.33;;;;;;;4.28;74.59;101799.63;8669883;33;20136;-76
2022/02/11 14:53:44;;;;;;;8.45;2.92;;;;;;;3.72;73.98;101812.00;8663374;33;20386;-76
2022/02/11 14:58:47;;;;;;;7.85;2.53;;;;;;;3.88;75.17;101832.81;8659510;33;20184;-75
2022/02/11 15:03:52;;;;;;;7.70;2.40;;;;;;;4.32;76.52;101823.44;8659148;33;20687;-75
2022/02/11 15:08:55;;;;;;;4.85;2.17;;;;;;;4.34;74.66;101837.56;8646676;33;20192;-76
2022/02/11 15:13:58;;;;;;;9.15;2.75;;;;;;;3.85;74.61;101841.75;8659482;33;20184;-75
2022/02/11 15:19:04;;;;;;;6.72;2.55;;;;;;;3.52;75.43;101861.34;8657380;33;20644;-75
2022/02/11 15:24:07;;;;;;;6.70;2.50;;;;;;;3.23;77.26;101868.31;8656692;33;20647;-76
2022/02/11 15:29:11;;;;;;;6.80;2.10;;;;;;;3.34;78.59;101868.88;8659088;33;20427;-77
2022/02/11 15:34:15;;;;;;;6.28;1.92;;;;;;;3.34;78.45;101889.25;8662506;33;20169;-77
2022/02/11 15:39:18;;;;;;;4.75;2.42;;;;;;;3.61;78.23;101892.94;8662293;33;21020;-75
2022/02/11 15:44:21;;;;;;;8.43;2.45;;;;;;;3.47;75.76;101893.34;8663303;33;20186;-75
2022/02/11 15:49:26;;;;;;;5.47;2.25;;;;;;;3.69;76.12;101913.09;8662046;33;20172;-77
2022/02/11 15:54:29;;;;;;;7.68;3.30;;;;;;;3.61;75.17;101903.59;8661966;33;20234;-77
2022/02/11 15:59:32;;;;;;;6.28;2.30;;;;;;;3.60;75.05;101921.31;8660057;33;20189;-75
2022/02/11 16:04:36;;;;;;;6.93;2.88;;;;;;;3.54;75.39;101924.16;8661578;33;20234;-75
2022/02/11 16:09:39;;;;;;;5.90;3.20;;;;;;;3.52;75.03;101927.75;8661719;33;20250;-76
2022/02/11 16:14:42;;;;;;;8.57;3.03;;;;;;;3.53;75.42;101951.63;8661998;33;20198;-75
2022/02/11 16:19:47;;;;;;;6.38;2.72;;;;;;;3.58;76.30;101959.47;8662409;33;20149;-76
2022/02/11 16:24:50;;;;;;;7.30;3.20;;;;;;;3.53;77.20;101994.13;8662611;33;20310;-75
2022/02/11 16:29:53;;;;;;;11.52;3.25;;;;;;;3.35;76.53;101989.31;8664017;33;20192;-75
2022/02/11 16:34:57;;;;;;;9.13;3.75;;;;;;;3.32;77.39;101994.69;8664382;33;20192;-75
2022/02/11 16:40:00;;;;;;;13.60;7.25;;;;;;;3.35;78.31;102007.91;8662648;33;20675;-75
2022/02/11 16:45:07;;;;;;;7.80;3.03;;;;;;;3.34;78.45;102009.66;8662333;33;20539;-75
2022/02/11 16:50:12;;;;;;;5.00;2.45;;;;;;;3.22;76.66;102023.28;8660953;33;20597;-75
2022/02/11 16:55:15;;;;;;;5.30;2.95;;;;;;;3.03;75.84;102023.69;8661355;33;20235;-76
2022/02/11 17:00:19;;;;;;;6.50;2.08;;;;;;;3.02;74.38;102024.63;8667462;33;20206;-77
2022/02/11 17:05:23;;;;;;;8.13;2.33;;;;;;;3.06;74.37;102031.59;8663474;33;20958;-75
2022/02/11 17:10:27;;;;;;;5.10;2.80;;;;;;;2.88;72.75;102044.41;8661778;33;20238;-75
2022/02/11 17:15:30;;;;;;;8.20;2.65;;;;;;;2.95;73.04;102032.75;8660193;33;20195;-74
2022/02/11 17:20:34;;;;;;;6.82;2.53;;;;;;;2.84;73.00;102051.59;8658482;33;20234;-76
2022/02/11 17:25:37;;;;;;;6.88;3.10;;;;;;;2.72;71.98;102054.53;8659832;33;20128;-76
2022/02/11 17:30:42;;;;;;;6.47;2.78;;;;;;;2.61;72.24;102057.41;8660016;33;20708;-75
2022/02/11 17:35:46;;;;;;;8.57;2.70;;;;;;;2.75;72.33;102065.06;8660801;33;20184;-76
2022/02/11 17:40:49;;;;;;;10.45;3.53;;;;;;;2.82;71.09;102070.19;8660210;33;20149;-74
2022/02/11 17:45:52;;;;;;;14.38;4.18;;;;;;;2.56;70.21;102073.41;8661350;33;20176;-75
2022/02/11 17:50:57;;;;;;;8.68;2.97;;;;;;;2.77;69.53;102087.13;8660394;33;20156;-76
2022/02/11 17:56:00;;;;;;;6.80;2.80;;;;;;;2.61;69.36;102087.47;8664588;33;20185;-73
2022/02/11 18:01:05;;;;;;;9.40;2.50;;;;;;;2.86;68.56;102086.94;8661411;33;20167;-74
2022/02/11 18:06:10;;;;;;;8.00;2.75;;;;;;;2.75;69.85;102083.63;8664760;33;20188;-74
2022/02/11 18:11:13;;;;;;;11.25;3.20;;;;;;;2.53;69.31;102085.84;8666038;33;20533;-74
2022/02/11 18:16:17;;;;;;;10.95;2.53;;;;;;;2.21;69.92;102091.75;8646331;33;20600;-74
2022/02/11 18:21:21;;;;;;;7.88;2.90;;;;;;;2.22;70.28;102094.38;8604338;33;20189;-74
2022/02/11 18:26:24;;;;;;;6.50;2.53;;;;;;;2.46;70.01;102118.69;8603615;33;20647;-74
2022/02/11 18:31:30;;;;;;;5.30;2.20;;;;;;;2.20;69.72;102128.03;8579587;33;20146;-73
2022/02/11 18:36:35;;;;;;;11.07;2.97;;;;;;;1.95;71.15;102115.19;8602468;33;20232;-77
2022/02/11 18:41:39;;;;;;;4.28;2.58;;;;;;;1.96;71.70;102113.41;8601828;33;20185;-74
2022/02/11 18:46:42;;;;;;;5.90;2.50;;;;;;;1.85;71.33;102121.56;8600522;33;20184;-77
2022/02/11 18:51:48;;;;;;;5.50;2.90;;;;;;;1.86;70.95;102125.94;8602799;33;20907;-75
2022/02/11 18:56:51;;;;;;;9.25;3.20;;;;;;;1.76;71.65;102127.03;8602092;33;20644;-76
2022/02/11 19:01:55;;;;;;;9.02;3.50;;;;;;;1.79;71.60;102136.69;8601489;33;20181;-75
2022/02/11 19:06:59;;;;;;;6.72;2.53;;;;;;;1.71;71.78;102135.03;8605166;33;20673;-76
2022/02/11 19:12:02;;;;;;;6.85;3.00;;;;;;;1.62;72.78;102150.19;8594128;33;20212;-76
2022/02/11 19:17:07;;;;;;;9.55;3.08;;;;;;;1.49;73.97;102144.22;8605682;33;21625;-76
2022/02/11 19:22:12;;;;;;;4.95;2.78;;;;;;;1.40;74.57;102145.25;8609317;33;20181;-76
2022/02/11 19:27:15;;;;;;;7.47;3.72;;;;;;;1.40;73.42;102153.19;8607954;33;20193;-74
2022/02/11 19:32:18;;;;;;;10.80;3.70;;;;;;;1.33;74.06;102166.53;8630986;33;20686;-75
2022/02/11 19:37:23;;;;;;;9.82;5.15;;;;;;;1.32;74.27;102173.59;8632884;33;20149;-74
2022/02/11 19:42:29;;;;;;;10.80;4.38;;;;;;;1.50;73.83;102169.81;8618271;33;20208;-73
2022/02/11 19:47:32;;;;;;;13.90;5.15;;;;;;;1.61;73.82;102182.91;8607802;33;20495;-74
2022/02/11 19:52:37;;;;;;;9.48;5.15;;;;;;;1.61;74.27;102177.59;8607856;33;20153;-74
2022/02/11 19:57:41;;;;;;;13.52;5.68;;;;;;;1.64;73.54;102185.50;8609376;33;20320;-74
2022/02/11 20:02:46;;;;;;;11.43;4.78;;;;;;;1.77;73.01;102197.66;8610493;33;20672;-75
2022/02/11 20:07:51;;;;;;;13.88;4.22;;;;;;;1.76;72.54;102193.28;8609775;33;20199;-74
2022/02/11 20:12:55;;;;;;;12.93;4.73;;;;;;;1.71;72.14;102189.81;8614524;33;20330;-74
2022/02/11 20:18:02;;;;;;;9.90;4.55;;;;;;;1.77;71.74;102195.00;8634734;33;21929;-74
2022/02/11 20:23:08;;;;;;;14.45;5.97;;;;;;;1.75;70.59;102210.06;8633768;33;20146;-73
2022/02/11 20:28:11;;;;;;;13.20;6.25;;;;;;;1.69;70.28;102211.03;8637809;33;20224;-75
2022/02/11 20:33:16;;;;;;;10.57;5.05;;;;;;;1.61;70.46;102222.63;8644528;33;20196;-74
2022/02/11 20:38:23;;;;;;;13.40;6.68;;;;;;;1.53;70.91;102219.22;8630839;33;20239;-74
2022/02/11 20:43:26;;;;;;;15.65;6.20;;;;;;;1.46;70.92;102235.19;8625536;33;20212;-73
2022/02/11 20:48:29;;;;;;;14.82;7.05;;;;;;;1.38;71.14;102226.47;8631282;33;20501;-75
2022/02/11 20:53:35;;;;;;;14.80;6.10;;;;;;;1.32;71.31;102228.31;8631816;33;20146;-74
2022/02/11 20:58:38;;;;;;;11.85;6.47;;;;;;;1.23;71.15;102231.97;8640915;33;20149;-74
2022/02/11 21:03:41;;;;;;;9.48;5.07;;;;;;;1.13;71.52;102236.53;8662407;33;20153;-74
2022/02/11 21:08:48;;;;;;;12.95;6.13;;;;;;;0.95;71.86;102237.59;8660783;33;20258;-75
2022/02/11 21:13:51;;;;;;;13.32;6.50;;;;;;;0.93;71.98;102241.16;8661038;33;20194;-74
2022/02/11 21:18:54;;;;;;;16.45;6.57;;;;;;;1.02;71.88;102249.88;8661218;33;20692;-72
2022/02/11 21:23:59;;;;;;;16.95;6.10;;;;;;;1.14;71.15;102250.63;8649759;33;21040;-75
2022/02/11 21:29:06;;;;;;;17.63;6.38;;;;;;;0.97;71.42;102253.47;8660727;33;20447;-75
2022/02/11 21:34:09;;;;;;;11.13;6.35;;;;;;;0.75;72.16;102248.41;8699909;33;20176;-74
2022/02/11 21:39:14;;;;;;;10.97;6.57;;;;;;;0.74;72.59;102241.38;8660120;33;20140;-74
2022/02/11 21:44:17;;;;;;;9.18;5.22;;;;;;;0.87;71.85;102246.53;8659851;33;20870;-74
2022/02/11 21:49:20;;;;;;;10.18;5.22;;;;;;;0.86;71.77;102240.34;8660146;33;20788;-73
2022/02/11 21:54:24;;;;;;;14.68;5.82;;;;;;;0.86;72.12;102253.59;8660649;33;20188;-74
2022/02/11 21:59:27;;;;;;;16.83;6.28;;;;;;;0.80;72.55;102246.59;8653034;33;20236;-74
2022/02/11 22:04:30;;;;;;;14.02;6.38;;;;;;;0.74;72.87;102227.25;8659439;33;20152;-75
2022/02/11 22:09:35;;;;;;;12.07;6.68;;;;;;;0.69;73.16;102231.72;8659269;33;20191;-74
2022/02/11 22:14:38;;;;;;;16.05;5.65;;;;;;;0.72;73.21;102237.00;8659003;33;20230;-73
2022/02/11 22:19:41;;;;;;;12.77;5.53;;;;;;;0.78;72.99;102237.78;8659532;33;20271;-73
2022/02/11 22:24:45;;;;;;;15.02;6.45;;;;;;;0.65;73.27;102248.50;8659983;33;20299;-74
2022/02/11 22:29:49;;;;;;;12.30;6.38;;;;;;;0.54;73.91;102260.06;8642871;33;20271;-73
2022/02/11 22:34:52;;;;;;;12.38;7.97;;;;;;;0.34;73.91;102256.75;8628938;33;20272;-73
2022/02/11 22:39:56;;;;;;;18.60;8.68;;;;;;;0.13;74.59;102258.66;8632706;33;20195;-72
2022/02/11 22:44:59;;;;;;;16.75;8.82;;;;;;;0.04;75.52;102263.16;8632156;33;20442;-73
2022/02/11 22:55:24;;;;;;;17.08;8.63;;;;;;;-0.10;76.51;102261.47;8662638;33;20862;-74
2022/02/11 23:00:43;;;;;;;14.83;9.33;;;;;;;-0.11;76.51;102264.09;8633006;33;20751;-74
2022/02/11 23:05:57;;;;;;;14.93;8.47;;;;;;;-0.07;76.88;102271.16;8624816;33;20177;-73
2022/02/11 23:11:01;;;;;;;13.47;7.37;;;;;;;-0.14;76.75;102270.31;8627034;33;20234;-73
2022/02/11 23:16:05;;;;;;;14.07;7.70;;;;;;;-0.17;76.85;102258.88;8633319;33;20153;-75
2022/02/11 23:21:09;;;;;;;15.77;8.30;;;;;;;-0.28;76.76;102270.38;8608193;33;20160;-73
2022/02/11 23:26:15;;;;;;;12.00;7.57;;;;;;;-0.41;76.83;102266.06;8604377;33;20196;-74
2022/02/11 23:31:18;;;;;;;14.23;8.67;;;;;;;-0.42;77.56;102264.31;8603931;33;20130;-73
2022/02/11 23:36:21;;;;;;;17.73;8.83;;;;;;;-0.45;77.59;102266.09;8604513;33;20203;-74
2022/02/11 23:41:26;;;;;;;14.13;9.23;;;;;;;-0.52;77.81;102249.41;8605460;33;20164;-73
2022/02/11 23:46:30;;;;;;;19.10;10.47;;;;;;;-0.56;77.96;102248.53;8605693;33;20150;-74
2022/02/11 23:51:33;;;;;;;20.97;11.27;;;;;;;-0.58;77.92;102252.06;8604708;33;20351;-73
2022/02/11 23:56:38;;;;;;;23.67;10.87;;;;;;;-0.60;78.41;102238.88;8603781;33;20203;-72
